sensor_id;sensor_type;location;lat;lon;timestamp;P1;durP1;ratioP1;P2;durP2;ratioP2
31182;SDS011;17813;0.000;0.000;2024-02-15T00:01:42;1.73;;;1.63;;
31182;SDS011;17813;0.000;0.000;2024-02-15T00:04:09;1.80;;;1.70;;
31182;SDS011;17813;0.000;0.000;2024-02-15T00:06:37;1.73;;;1.63;;
31182;SDS011;17813;0.000;0.000;2024-02-15T00:09:04;1.67;;;1.57;;
31182;SDS011;17813;0.000;0.000;2024-02-15T00:11:32;2.20;;;1.80;;
31182;SDS011;17813;0.000;0.000;2024-02-15T00:14:01;1.80;;;1.60;;
31182;SDS011;17813;0.000;0.000;2024-02-15T00:16:29;1.83;;;1.60;;
31182;SDS011;17813;0.000;0.000;2024-02-15T00:18:56;2.47;;;1.60;;
31182;SDS011;17813;0.000;0.000;2024-02-15T00:21:24;2.27;;;1.70;;
31182;SDS011;17813;0.000;0.000;2024-02-15T00:23:51;1.67;;;1.57;;
31182;SDS011;17813;0.000;0.000;2024-02-15T00:26:21;1.57;;;1.47;;
31182;SDS011;17813;0.000;0.000;2024-02-15T00:28:48;1.40;;;1.23;;
31182;SDS011;17813;0.000;0.000;2024-02-15T00:31:14;1.37;;;1.27;;
31182;SDS011;17813;0.000;0.000;2024-02-15T00:33:42;1.23;;;1.13;;
31182;SDS011;17813;0.000;0.000;2024-02-15T00:36:09;1.37;;;1.27;;
31182;SDS011;17813;0.000;0.000;2024-02-15T00:38:38;1.20;;;1.10;;
31182;SDS011;17813;0.000;0.000;2024-02-15T00:41:08;1.27;;;1.17;;
31182;SDS011;17813;0.000;0.000;2024-02-15T00:43:36;1.00;;;1.00;;
31182;SDS011;17813;0.000;0.000;2024-02-15T00:46:03;1.20;;;1.10;;
31182;SDS011;17813;0.000;0.000;2024-02-15T00:48:29;1.30;;;1.20;;
31182;SDS011;17813;0.000;0.000;2024-02-15T00:50:58;1.27;;;1.20;;
31182;SDS011;17813;0.000;0.000;2024-02-15T00:53:25;1.30;;;1.20;;
31182;SDS011;17813;0.000;0.000;2024-02-15T00:55:57;1.00;;;1.00;;
31182;SDS011;17813;0.000;0.000;2024-02-15T00:58:25;1.40;;;1.30;;
31182;SDS011;17813;0.000;0.000;2024-02-15T01:00:54;1.30;;;1.20;;
31182;SDS011;17813;0.000;0.000;2024-02-15T01:03:23;1.10;;;1.10;;
31182;SDS011;17813;0.000;0.000;2024-02-15T01:05:51;1.30;;;1.20;;
31182;SDS011;17813;0.000;0.000;2024-02-15T01:08:19;1.30;;;1.20;;
31182;SDS011;17813;0.000;0.000;2024-02-15T01:10:48;1.50;;;1.40;;
31182;SDS011;17813;0.000;0.000;2024-02-15T01:13:18;1.30;;;1.20;;
31182;SDS011;17813;0.000;0.000;2024-02-15T01:15:44;1.20;;;1.20;;
31182;SDS011;17813;0.000;0.000;2024-02-15T01:18:11;1.10;;;1.10;;
31182;SDS011;17813;0.000;0.000;2024-02-15T01:20:39;4.40;;;2.80;;
31182;SDS011;17813;0.000;0.000;2024-02-15T01:23:06;4.20;;;2.40;;
31182;SDS011;17813;0.000;0.000;2024-02-15T01:25:36;3.60;;;2.37;;
31182;SDS011;17813;0.000;0.000;2024-02-15T01:28:03;4.13;;;2.70;;
31182;SDS011;17813;0.000;0.000;2024-02-15T01:30:30;6.33;;;3.07;;
31182;SDS011;17813;0.000;0.000;2024-02-15T01:32:58;5.33;;;2.93;;
31182;SDS011;17813;0.000;0.000;2024-02-15T01:35:26;3.30;;;3.00;;
31182;SDS011;17813;0.000;0.000;2024-02-15T01:37:57;5.87;;;3.87;;
31182;SDS011;17813;0.000;0.000;2024-02-15T01:40:24;6.40;;;3.30;;
31182;SDS011;17813;0.000;0.000;2024-02-15T01:42:53;4.33;;;3.30;;
31182;SDS011;17813;0.000;0.000;2024-02-15T01:45:22;5.73;;;3.47;;
31182;SDS011;17813;0.000;0.000;2024-02-15T01:47:49;5.07;;;3.57;;
31182;SDS011;17813;0.000;0.000;2024-02-15T01:50:18;6.13;;;3.60;;
31182;SDS011;17813;0.000;0.000;2024-02-15T01:52:48;4.13;;;3.27;;
31182;SDS011;17813;0.000;0.000;2024-02-15T01:55:19;6.30;;;3.23;;
31182;SDS011;17813;0.000;0.000;2024-02-15T01:57:49;3.70;;;2.80;;
31182;SDS011;17813;0.000;0.000;2024-02-15T02:00:17;3.27;;;2.60;;
31182;SDS011;17813;0.000;0.000;2024-02-15T02:02:45;2.80;;;2.27;;
31182;SDS011;17813;0.000;0.000;2024-02-15T02:05:16;3.27;;;2.87;;
31182;SDS011;17813;0.000;0.000;2024-02-15T02:07:44;3.50;;;2.90;;
31182;SDS011;17813;0.000;0.000;2024-02-15T02:10:11;4.43;;;3.93;;
31182;SDS011;17813;0.000;0.000;2024-02-15T02:12:41;3.63;;;3.17;;
31182;SDS011;17813;0.000;0.000;2024-02-15T02:15:09;3.90;;;3.10;;
31182;SDS011;17813;0.000;0.000;2024-02-15T02:17:37;3.77;;;3.30;;
31182;SDS011;17813;0.000;0.000;2024-02-15T02:20:06;3.57;;;3.17;;
31182;SDS011;17813;0.000;0.000;2024-02-15T02:22:35;3.43;;;2.73;;
31182;SDS011;17813;0.000;0.000;2024-02-15T02:25:06;4.53;;;2.70;;
31182;SDS011;17813;0.000;0.000;2024-02-15T02:27:34;3.47;;;2.20;;
31182;SDS011;17813;0.000;0.000;2024-02-15T02:30:12;2.40;;;2.20;;
31182;SDS011;17813;0.000;0.000;2024-02-15T02:32:44;2.30;;;2.10;;
31182;SDS011;17813;0.000;0.000;2024-02-15T02:35:14;2.30;;;2.10;;
31182;SDS011;17813;0.000;0.000;2024-02-15T02:37:42;1.90;;;1.80;;
31182;SDS011;17813;0.000;0.000;2024-02-15T02:40:09;1.77;;;1.67;;
31182;SDS011;17813;0.000;0.000;2024-02-15T02:45:28;1.90;;;1.80;;
31182;SDS011;17813;0.000;0.000;2024-02-15T02:47:55;1.80;;;1.70;;
31182;SDS011;17813;0.000;0.000;2024-02-15T02:50:22;1.90;;;1.80;;
31182;SDS011;17813;0.000;0.000;2024-02-15T02:52:51;2.40;;;2.20;;
31182;SDS011;17813;0.000;0.000;2024-02-15T02:55:18;2.60;;;2.40;;
31182;SDS011;17813;0.000;0.000;2024-02-15T02:57:46;3.10;;;2.43;;
31182;SDS011;17813;0.000;0.000;2024-02-15T03:00:14;2.60;;;2.40;;
31182;SDS011;17813;0.000;0.000;2024-02-15T03:02:42;2.53;;;2.33;;
31182;SDS011;17813;0.000;0.000;2024-02-15T03:05:10;2.37;;;2.17;;
31182;SDS011;17813;0.000;0.000;2024-02-15T03:07:39;2.50;;;2.30;;
31182;SDS011;17813;0.000;0.000;2024-02-15T03:10:07;3.10;;;2.47;;
31182;SDS011;17813;0.000;0.000;2024-02-15T03:12:35;2.67;;;2.23;;
31182;SDS011;17813;0.000;0.000;2024-02-15T03:15:06;3.17;;;2.53;;
31182;SDS011;17813;0.000;0.000;2024-02-15T03:17:40;2.37;;;2.17;;
31182;SDS011;17813;0.000;0.000;2024-02-15T03:20:12;3.20;;;2.67;;
31182;SDS011;17813;0.000;0.000;2024-02-15T03:22:59;2.70;;;2.50;;
31182;SDS011;17813;0.000;0.000;2024-02-15T03:25:27;3.43;;;2.43;;
31182;SDS011;17813;0.000;0.000;2024-02-15T03:27:56;3.10;;;2.40;;
31182;SDS011;17813;0.000;0.000;2024-02-15T03:30:25;2.70;;;2.50;;
31182;SDS011;17813;0.000;0.000;2024-02-15T03:32:53;2.40;;;2.20;;
31182;SDS011;17813;0.000;0.000;2024-02-15T03:35:21;2.77;;;2.57;;
31182;SDS011;17813;0.000;0.000;2024-02-15T03:37:54;3.97;;;2.90;;
31182;SDS011;17813;0.000;0.000;2024-02-15T03:40:22;4.00;;;3.00;;
31182;SDS011;17813;0.000;0.000;2024-02-15T03:42:53;3.20;;;2.90;;
31182;SDS011;17813;0.000;0.000;2024-02-15T03:45:20;3.00;;;2.80;;
31182;SDS011;17813;0.000;0.000;2024-02-15T03:47:55;3.17;;;2.87;;
31182;SDS011;17813;0.000;0.000;2024-02-15T03:50:23;2.90;;;2.70;;
31182;SDS011;17813;0.000;0.000;2024-02-15T03:52:51;2.87;;;2.60;;
31182;SDS011;17813;0.000;0.000;2024-02-15T03:55:18;2.50;;;2.30;;
31182;SDS011;17813;0.000;0.000;2024-02-15T03:57:48;2.83;;;2.53;;
31182;SDS011;17813;0.000;0.000;2024-02-15T04:00:16;3.47;;;2.50;;
31182;SDS011;17813;0.000;0.000;2024-02-15T04:02:47;3.03;;;2.47;;
31182;SDS011;17813;0.000;0.000;2024-02-15T04:05:15;2.90;;;2.60;;
31182;SDS011;17813;0.000;0.000;2024-02-15T04:07:44;3.00;;;2.70;;
31182;SDS011;17813;0.000;0.000;2024-02-15T04:10:12;3.87;;;2.40;;
31182;SDS011;17813;0.000;0.000;2024-02-15T04:12:41;2.73;;;2.53;;
31182;SDS011;17813;0.000;0.000;2024-02-15T04:15:12;2.50;;;2.30;;
31182;SDS011;17813;0.000;0.000;2024-02-15T04:17:42;2.70;;;2.50;;
31182;SDS011;17813;0.000;0.000;2024-02-15T04:20:10;2.47;;;2.27;;
31182;SDS011;17813;0.000;0.000;2024-02-15T04:22:37;2.43;;;2.20;;
31182;SDS011;17813;0.000;0.000;2024-02-15T04:25:05;2.50;;;1.93;;
31182;SDS011;17813;0.000;0.000;2024-02-15T04:27:36;2.30;;;2.10;;
31182;SDS011;17813;0.000;0.000;2024-02-15T04:30:03;2.30;;;1.90;;
31182;SDS011;17813;0.000;0.000;2024-02-15T04:32:30;2.13;;;2.03;;
31182;SDS011;17813;0.000;0.000;2024-02-15T04:35:00;2.30;;;1.70;;
31182;SDS011;17813;0.000;0.000;2024-02-15T04:37:33;2.50;;;2.27;;
31182;SDS011;17813;0.000;0.000;2024-02-15T04:40:02;3.20;;;2.20;;
31182;SDS011;17813;0.000;0.000;2024-02-15T04:42:37;3.00;;;1.90;;
31182;SDS011;17813;0.000;0.000;2024-02-15T04:45:13;1.90;;;1.80;;
31182;SDS011;17813;0.000;0.000;2024-02-15T04:47:42;1.83;;;1.73;;
31182;SDS011;17813;0.000;0.000;2024-02-15T04:50:11;1.83;;;1.73;;
31182;SDS011;17813;0.000;0.000;2024-02-15T04:52:40;2.37;;;1.87;;
31182;SDS011;17813;0.000;0.000;2024-02-15T04:55:13;2.30;;;2.10;;
31182;SDS011;17813;0.000;0.000;2024-02-15T04:57:42;2.10;;;2.00;;
31182;SDS011;17813;0.000;0.000;2024-02-15T05:00:11;2.20;;;2.00;;
31182;SDS011;17813;0.000;0.000;2024-02-15T05:02:42;2.43;;;2.30;;
31182;SDS011;17813;0.000;0.000;2024-02-15T05:05:10;2.47;;;2.27;;
31182;SDS011;17813;0.000;0.000;2024-02-15T05:07:38;7.27;;;6.60;;
31182;SDS011;17813;0.000;0.000;2024-02-15T05:10:05;3.33;;;3.00;;
31182;SDS011;17813;0.000;0.000;2024-02-15T05:12:34;3.23;;;2.33;;
31182;SDS011;17813;0.000;0.000;2024-02-15T05:15:02;2.50;;;2.23;;
31182;SDS011;17813;0.000;0.000;2024-02-15T05:17:38;2.77;;;2.57;;
31182;SDS011;17813;0.000;0.000;2024-02-15T05:20:07;2.50;;;2.30;;
31182;SDS011;17813;0.000;0.000;2024-02-15T05:22:38;2.40;;;2.20;;
31182;SDS011;17813;0.000;0.000;2024-02-15T05:25:07;2.20;;;2.10;;
31182;SDS011;17813;0.000;0.000;2024-02-15T05:27:35;2.30;;;2.03;;
31182;SDS011;17813;0.000;0.000;2024-02-15T05:30:03;3.37;;;3.07;;
31182;SDS011;17813;0.000;0.000;2024-02-15T05:32:34;4.50;;;4.00;;
31182;SDS011;17813;0.000;0.000;2024-02-15T05:35:11;3.30;;;3.00;;
31182;SDS011;17813;0.000;0.000;2024-02-15T05:37:40;3.27;;;2.97;;
31182;SDS011;17813;0.000;0.000;2024-02-15T05:40:09;2.97;;;2.60;;
31182;SDS011;17813;0.000;0.000;2024-02-15T05:42:44;2.93;;;2.60;;
31182;SDS011;17813;0.000;0.000;2024-02-15T05:47:52;2.53;;;2.33;;
31182;SDS011;17813;0.000;0.000;2024-02-15T05:50:19;3.10;;;2.90;;
31182;SDS011;17813;0.000;0.000;2024-02-15T05:52:47;2.80;;;2.60;;
31182;SDS011;17813;0.000;0.000;2024-02-15T05:55:14;3.20;;;2.90;;
31182;SDS011;17813;0.000;0.000;2024-02-15T05:57:45;2.70;;;2.50;;
31182;SDS011;17813;0.000;0.000;2024-02-15T06:00:14;3.30;;;3.00;;
31182;SDS011;17813;0.000;0.000;2024-02-15T06:02:44;3.20;;;2.90;;
31182;SDS011;17813;0.000;0.000;2024-02-15T06:05:13;3.30;;;3.00;;
31182;SDS011;17813;0.000;0.000;2024-02-15T06:07:43;3.50;;;3.20;;
31182;SDS011;17813;0.000;0.000;2024-02-15T06:10:12;4.00;;;3.43;;
31182;SDS011;17813;0.000;0.000;2024-02-15T06:12:42;3.93;;;3.63;;
31182;SDS011;17813;0.000;0.000;2024-02-15T06:15:10;3.80;;;3.50;;
31182;SDS011;17813;0.000;0.000;2024-02-15T06:17:41;4.23;;;3.90;;
31182;SDS011;17813;0.000;0.000;2024-02-15T06:20:13;4.70;;;4.30;;
31182;SDS011;17813;0.000;0.000;2024-02-15T06:22:41;4.67;;;4.27;;
31182;SDS011;17813;0.000;0.000;2024-02-15T06:25:09;4.27;;;3.90;;
31182;SDS011;17813;0.000;0.000;2024-02-15T06:27:38;4.53;;;4.13;;
31182;SDS011;17813;0.000;0.000;2024-02-15T06:30:09;4.37;;;3.97;;
31182;SDS011;17813;0.000;0.000;2024-02-15T06:32:57;4.37;;;3.97;;
31182;SDS011;17813;0.000;0.000;2024-02-15T06:35:43;4.43;;;4.10;;
31182;SDS011;17813;0.000;0.000;2024-02-15T06:38:30;4.87;;;4.40;;
31182;SDS011;17813;0.000;0.000;2024-02-15T06:41:16;4.83;;;4.43;;
31182;SDS011;17813;0.000;0.000;2024-02-15T06:43:46;4.77;;;4.37;;
31182;SDS011;17813;0.000;0.000;2024-02-15T06:46:12;4.67;;;4.13;;
31182;SDS011;17813;0.000;0.000;2024-02-15T06:48:43;4.57;;;4.17;;
31182;SDS011;17813;0.000;0.000;2024-02-15T06:51:14;4.57;;;4.17;;
31182;SDS011;17813;0.000;0.000;2024-02-15T06:53:43;5.27;;;4.80;;
31182;SDS011;17813;0.000;0.000;2024-02-15T06:56:11;4.70;;;4.30;;
31182;SDS011;17813;0.000;0.000;2024-02-15T06:58:41;4.60;;;4.20;;
31182;SDS011;17813;0.000;0.000;2024-02-15T07:01:08;5.27;;;4.77;;
31182;SDS011;17813;0.000;0.000;2024-02-15T07:03:39;5.53;;;5.03;;
31182;SDS011;17813;0.000;0.000;2024-02-15T07:06:06;5.47;;;4.93;;
31182;SDS011;17813;0.000;0.000;2024-02-15T07:08:35;4.90;;;4.40;;
31182;SDS011;17813;0.000;0.000;2024-02-15T07:11:07;5.60;;;5.10;;
31182;SDS011;17813;0.000;0.000;2024-02-15T07:13:43;5.10;;;4.67;;
31182;SDS011;17813;0.000;0.000;2024-02-15T07:16:12;5.60;;;4.80;;
31182;SDS011;17813;0.000;0.000;2024-02-15T07:18:41;6.00;;;5.40;;
31182;SDS011;17813;0.000;0.000;2024-02-15T07:21:13;6.20;;;5.60;;
31182;SDS011;17813;0.000;0.000;2024-02-15T07:23:44;6.63;;;5.43;;
31182;SDS011;17813;0.000;0.000;2024-02-15T07:26:12;5.97;;;5.37;;
31182;SDS011;17813;0.000;0.000;2024-02-15T07:28:41;5.97;;;5.37;;
31182;SDS011;17813;0.000;0.000;2024-02-15T07:31:12;5.43;;;4.93;;
31182;SDS011;17813;0.000;0.000;2024-02-15T07:33:41;6.77;;;5.60;;
31182;SDS011;17813;0.000;0.000;2024-02-15T07:36:11;6.03;;;5.43;;
31182;SDS011;17813;0.000;0.000;2024-02-15T07:38:38;6.77;;;5.63;;
31182;SDS011;17813;0.000;0.000;2024-02-15T07:41:07;6.20;;;5.23;;
31182;SDS011;17813;0.000;0.000;2024-02-15T07:43:34;6.67;;;5.20;;
31182;SDS011;17813;0.000;0.000;2024-02-15T07:46:04;6.10;;;5.50;;
31182;SDS011;17813;0.000;0.000;2024-02-15T07:48:34;6.23;;;5.30;;
31182;SDS011;17813;0.000;0.000;2024-02-15T07:51:02;7.17;;;5.40;;
31182;SDS011;17813;0.000;0.000;2024-02-15T07:53:38;5.10;;;4.70;;
31182;SDS011;17813;0.000;0.000;2024-02-15T07:56:06;5.83;;;5.23;;
31182;SDS011;17813;0.000;0.000;2024-02-15T07:58:48;5.23;;;4.73;;
31182;SDS011;17813;0.000;0.000;2024-02-15T08:01:20;5.40;;;4.90;;
31182;SDS011;17813;0.000;0.000;2024-02-15T08:03:48;5.70;;;4.83;;
31182;SDS011;17813;0.000;0.000;2024-02-15T08:06:19;5.60;;;5.00;;
31182;SDS011;17813;0.000;0.000;2024-02-15T08:08:48;5.47;;;4.97;;
31182;SDS011;17813;0.000;0.000;2024-02-15T08:11:19;5.17;;;4.77;;
31182;SDS011;17813;0.000;0.000;2024-02-15T08:13:51;7.10;;;4.83;;
31182;SDS011;17813;0.000;0.000;2024-02-15T08:16:20;5.60;;;5.00;;
31182;SDS011;17813;0.000;0.000;2024-02-15T08:18:49;5.23;;;4.73;;
31182;SDS011;17813;0.000;0.000;2024-02-15T08:21:30;5.63;;;4.83;;
31182;SDS011;17813;0.000;0.000;2024-02-15T08:24:07;5.07;;;4.60;;
31182;SDS011;17813;0.000;0.000;2024-02-15T08:26:38;4.70;;;4.20;;
31182;SDS011;17813;0.000;0.000;2024-02-15T08:29:07;4.70;;;4.30;;
31182;SDS011;17813;0.000;0.000;2024-02-15T08:31:43;5.80;;;4.37;;
31182;SDS011;17813;0.000;0.000;2024-02-15T08:34:15;4.60;;;4.20;;
31182;SDS011;17813;0.000;0.000;2024-02-15T08:36:44;5.47;;;4.83;;
31182;SDS011;17813;0.000;0.000;2024-02-15T08:39:13;4.77;;;4.37;;
31182;SDS011;17813;0.000;0.000;2024-02-15T08:41:42;5.47;;;4.30;;
31182;SDS011;17813;0.000;0.000;2024-02-15T08:44:09;4.60;;;4.20;;
31182;SDS011;17813;0.000;0.000;2024-02-15T08:46:41;4.70;;;4.30;;
31182;SDS011;17813;0.000;0.000;2024-02-15T08:49:09;4.40;;;4.00;;
31182;SDS011;17813;0.000;0.000;2024-02-15T08:51:39;4.37;;;3.97;;
31182;SDS011;17813;0.000;0.000;2024-02-15T08:54:07;4.40;;;4.00;;
31182;SDS011;17813;0.000;0.000;2024-02-15T08:56:37;4.33;;;3.93;;
31182;SDS011;17813;0.000;0.000;2024-02-15T08:59:04;4.00;;;3.60;;
31182;SDS011;17813;0.000;0.000;2024-02-15T09:01:31;4.23;;;3.60;;
31182;SDS011;17813;0.000;0.000;2024-02-15T09:04:01;4.20;;;3.80;;
31182;SDS011;17813;0.000;0.000;2024-02-15T09:06:31;4.20;;;3.80;;
31182;SDS011;17813;0.000;0.000;2024-02-15T09:08:59;3.90;;;3.60;;
31182;SDS011;17813;0.000;0.000;2024-02-15T09:11:29;4.10;;;3.70;;
31182;SDS011;17813;0.000;0.000;2024-02-15T09:13:57;3.83;;;3.53;;
31182;SDS011;17813;0.000;0.000;2024-02-15T09:16:27;4.33;;;3.53;;
31182;SDS011;17813;0.000;0.000;2024-02-15T09:18:58;4.03;;;3.37;;
31182;SDS011;17813;0.000;0.000;2024-02-15T09:21:30;3.70;;;3.33;;
31182;SDS011;17813;0.000;0.000;2024-02-15T09:24:02;3.20;;;3.00;;
31182;SDS011;17813;0.000;0.000;2024-02-15T09:26:32;3.60;;;3.30;;
31182;SDS011;17813;0.000;0.000;2024-02-15T09:29:00;3.67;;;3.37;;
31182;SDS011;17813;0.000;0.000;2024-02-15T09:31:27;3.60;;;3.30;;
31182;SDS011;17813;0.000;0.000;2024-02-15T09:33:55;3.27;;;3.07;;
31182;SDS011;17813;0.000;0.000;2024-02-15T09:36:24;3.43;;;3.13;;
31182;SDS011;17813;0.000;0.000;2024-02-15T09:38:51;2.90;;;2.70;;
31182;SDS011;17813;0.000;0.000;2024-02-15T09:41:19;3.20;;;2.80;;
31182;SDS011;17813;0.000;0.000;2024-02-15T09:43:47;3.40;;;3.10;;
31182;SDS011;17813;0.000;0.000;2024-02-15T09:46:14;3.30;;;3.00;;
31182;SDS011;17813;0.000;0.000;2024-02-15T09:48:46;3.07;;;2.73;;
31182;SDS011;17813;0.000;0.000;2024-02-15T09:51:16;3.03;;;2.60;;
31182;SDS011;17813;0.000;0.000;2024-02-15T09:53:46;3.17;;;2.83;;
31182;SDS011;17813;0.000;0.000;2024-02-15T09:56:14;3.57;;;2.97;;
31182;SDS011;17813;0.000;0.000;2024-02-15T09:58:42;3.07;;;2.87;;
31182;SDS011;17813;0.000;0.000;2024-02-15T10:01:10;4.37;;;2.80;;
31182;SDS011;17813;0.000;0.000;2024-02-15T10:03:39;3.00;;;2.70;;
31182;SDS011;17813;0.000;0.000;2024-02-15T10:06:07;2.60;;;2.40;;
31182;SDS011;17813;0.000;0.000;2024-02-15T10:08:35;2.93;;;2.57;;
31182;SDS011;17813;0.000;0.000;2024-02-15T10:11:09;2.30;;;2.10;;
31182;SDS011;17813;0.000;0.000;2024-02-15T10:13:36;2.60;;;2.40;;
31182;SDS011;17813;0.000;0.000;2024-02-15T10:16:14;2.57;;;2.37;;
31182;SDS011;17813;0.000;0.000;2024-02-15T10:18:42;2.37;;;2.17;;
31182;SDS011;17813;0.000;0.000;2024-02-15T10:21:09;2.57;;;2.30;;
31182;SDS011;17813;0.000;0.000;2024-02-15T10:24:01;2.20;;;2.00;;
31182;SDS011;17813;0.000;0.000;2024-02-15T10:26:30;2.30;;;2.10;;
31182;SDS011;17813;0.000;0.000;2024-02-15T10:29:05;2.20;;;2.00;;
31182;SDS011;17813;0.000;0.000;2024-02-15T10:31:35;2.03;;;1.93;;
31182;SDS011;17813;0.000;0.000;2024-02-15T10:34:05;2.23;;;2.03;;
31182;SDS011;17813;0.000;0.000;2024-02-15T10:36:33;2.27;;;1.90;;
31182;SDS011;17813;0.000;0.000;2024-02-15T10:39:19;2.37;;;2.00;;
31182;SDS011;17813;0.000;0.000;2024-02-15T10:41:53;2.13;;;1.93;;
31182;SDS011;17813;0.000;0.000;2024-02-15T10:44:20;1.83;;;1.67;;
31182;SDS011;17813;0.000;0.000;2024-02-15T10:46:51;1.97;;;1.87;;
31182;SDS011;17813;0.000;0.000;2024-02-15T10:51:55;1.90;;;1.80;;
31182;SDS011;17813;0.000;0.000;2024-02-15T10:57:07;2.43;;;1.90;;
31182;SDS011;17813;0.000;0.000;2024-02-15T10:59:43;1.80;;;1.70;;
31182;SDS011;17813;0.000;0.000;2024-02-15T11:02:31;1.90;;;1.80;;
31182;SDS011;17813;0.000;0.000;2024-02-15T11:05:07;1.80;;;1.57;;
31182;SDS011;17813;0.000;0.000;2024-02-15T11:07:37;1.40;;;1.30;;
31182;SDS011;17813;0.000;0.000;2024-02-15T11:10:08;1.47;;;1.37;;
31182;SDS011;17813;0.000;0.000;2024-02-15T11:12:38;1.47;;;1.37;;
31182;SDS011;17813;0.000;0.000;2024-02-15T11:15:09;1.40;;;1.30;;
31182;SDS011;17813;0.000;0.000;2024-02-15T11:23:06;1.37;;;1.27;;
31182;SDS011;17813;0.000;0.000;2024-02-15T11:25:38;1.30;;;1.20;;
31182;SDS011;17813;0.000;0.000;2024-02-15T11:30:55;1.13;;;1.03;;
31182;SDS011;17813;0.000;0.000;2024-02-15T11:33:25;1.43;;;1.33;;
31182;SDS011;17813;0.000;0.000;2024-02-15T11:36:09;0.93;;;0.93;;
31182;SDS011;17813;0.000;0.000;2024-02-15T11:38:39;1.23;;;1.13;;
31182;SDS011;17813;0.000;0.000;2024-02-15T11:41:10;1.20;;;1.10;;
31182;SDS011;17813;0.000;0.000;2024-02-15T11:46:16;1.20;;;1.10;;
31182;SDS011;17813;0.000;0.000;2024-02-15T11:48:47;1.40;;;1.10;;
31182;SDS011;17813;0.000;0.000;2024-02-15T11:51:24;0.90;;;0.90;;
31182;SDS011;17813;0.000;0.000;2024-02-15T11:54:14;0.87;;;0.87;;
31182;SDS011;17813;0.000;0.000;2024-02-15T11:56:53;0.97;;;0.97;;
31182;SDS011;17813;0.000;0.000;2024-02-15T11:59:42;1.07;;;0.90;;
31182;SDS011;17813;0.000;0.000;2024-02-15T12:02:19;0.77;;;0.77;;
31182;SDS011;17813;0.000;0.000;2024-02-15T12:05:14;0.97;;;0.90;;
31182;SDS011;17813;0.000;0.000;2024-02-15T12:08:00;1.00;;;1.00;;
31182;SDS011;17813;0.000;0.000;2024-02-15T12:14:33;0.70;;;0.70;;
31182;SDS011;17813;0.000;0.000;2024-02-15T12:17:19;1.10;;;1.03;;
31182;SDS011;17813;0.000;0.000;2024-02-15T12:20:10;1.00;;;0.80;;
31182;SDS011;17813;0.000;0.000;2024-02-15T12:22:44;0.80;;;0.80;;
31182;SDS011;17813;0.000;0.000;2024-02-15T12:25:14;0.80;;;0.80;;
31182;SDS011;17813;0.000;0.000;2024-02-15T12:27:42;0.90;;;0.90;;
31182;SDS011;17813;0.000;0.000;2024-02-15T12:30:13;1.67;;;0.90;;
31182;SDS011;17813;0.000;0.000;2024-02-15T12:32:41;0.80;;;0.80;;
31182;SDS011;17813;0.000;0.000;2024-02-15T12:35:12;1.17;;;0.67;;
31182;SDS011;17813;0.000;0.000;2024-02-15T12:38:00;0.70;;;0.70;;
31182;SDS011;17813;0.000;0.000;2024-02-15T12:40:38;1.10;;;0.80;;
31182;SDS011;17813;0.000;0.000;2024-02-15T12:43:06;1.50;;;0.70;;
31182;SDS011;17813;0.000;0.000;2024-02-15T12:45:35;0.80;;;0.80;;
31182;SDS011;17813;0.000;0.000;2024-02-15T12:48:05;0.80;;;0.63;;
31182;SDS011;17813;0.000;0.000;2024-02-15T12:50:50;0.80;;;0.80;;
31182;SDS011;17813;0.000;0.000;2024-02-15T12:53:22;0.60;;;0.60;;
31182;SDS011;17813;0.000;0.000;2024-02-15T12:55:53;0.50;;;0.50;;
31182;SDS011;17813;0.000;0.000;2024-02-15T12:58:25;0.50;;;0.50;;
31182;SDS011;17813;0.000;0.000;2024-02-15T13:00:55;0.63;;;0.57;;
31182;SDS011;17813;0.000;0.000;2024-02-15T13:03:25;1.60;;;0.67;;
31182;SDS011;17813;0.000;0.000;2024-02-15T13:05:54;0.80;;;0.80;;
31182;SDS011;17813;0.000;0.000;2024-02-15T13:08:43;1.30;;;0.80;;
31182;SDS011;17813;0.000;0.000;2024-02-15T13:11:14;1.20;;;1.10;;
31182;SDS011;17813;0.000;0.000;2024-02-15T13:13:43;1.20;;;1.10;;
31182;SDS011;17813;0.000;0.000;2024-02-15T13:16:10;0.83;;;0.70;;
31182;SDS011;17813;0.000;0.000;2024-02-15T13:18:38;1.83;;;0.90;;
31182;SDS011;17813;0.000;0.000;2024-02-15T13:21:06;0.80;;;0.80;;
31182;SDS011;17813;0.000;0.000;2024-02-15T13:23:39;0.93;;;0.90;;
31182;SDS011;17813;0.000;0.000;2024-02-15T13:26:06;1.30;;;1.13;;
31182;SDS011;17813;0.000;0.000;2024-02-15T13:28:34;1.10;;;1.00;;
31182;SDS011;17813;0.000;0.000;2024-02-15T13:31:04;2.07;;;1.20;;
31182;SDS011;17813;0.000;0.000;2024-02-15T13:33:32;0.90;;;0.90;;
31182;SDS011;17813;0.000;0.000;2024-02-15T13:35:59;1.43;;;0.90;;
31182;SDS011;17813;0.000;0.000;2024-02-15T13:38:27;1.57;;;1.07;;
31182;SDS011;17813;0.000;0.000;2024-02-15T13:40:56;1.03;;;0.90;;
31182;SDS011;17813;0.000;0.000;2024-02-15T13:43:29;1.10;;;0.93;;
31182;SDS011;17813;0.000;0.000;2024-02-15T13:45:58;1.27;;;0.97;;
31182;SDS011;17813;0.000;0.000;2024-02-15T13:48:29;1.20;;;1.10;;
31182;SDS011;17813;0.000;0.000;2024-02-15T13:50:57;1.50;;;1.20;;
31182;SDS011;17813;0.000;0.000;2024-02-15T13:53:24;1.43;;;0.97;;
31182;SDS011;17813;0.000;0.000;2024-02-15T13:55:55;1.87;;;1.03;;
31182;SDS011;17813;0.000;0.000;2024-02-15T13:58:22;0.90;;;0.90;;
31182;SDS011;17813;0.000;0.000;2024-02-15T14:00:49;1.17;;;1.03;;
31182;SDS011;17813;0.000;0.000;2024-02-15T14:03:16;1.20;;;1.00;;
31182;SDS011;17813;0.000;0.000;2024-02-15T14:05:45;1.20;;;1.10;;
31182;SDS011;17813;0.000;0.000;2024-02-15T14:08:13;1.70;;;1.43;;
31182;SDS011;17813;0.000;0.000;2024-02-15T14:10:41;1.83;;;1.23;;
31182;SDS011;17813;0.000;0.000;2024-02-15T14:13:09;3.20;;;1.27;;
31182;SDS011;17813;0.000;0.000;2024-02-15T14:15:39;1.40;;;1.23;;
31182;SDS011;17813;0.000;0.000;2024-02-15T14:18:08;1.20;;;1.10;;
31182;SDS011;17813;0.000;0.000;2024-02-15T14:20:37;1.20;;;1.10;;
31182;SDS011;17813;0.000;0.000;2024-02-15T14:23:05;1.60;;;1.13;;
31182;SDS011;17813;0.000;0.000;2024-02-15T14:25:40;1.00;;;0.90;;
31182;SDS011;17813;0.000;0.000;2024-02-15T14:28:10;1.30;;;1.10;;
31182;SDS011;17813;0.000;0.000;2024-02-15T14:30:39;1.83;;;1.30;;
31182;SDS011;17813;0.000;0.000;2024-02-15T14:33:24;2.07;;;1.20;;
31182;SDS011;17813;0.000;0.000;2024-02-15T14:35:52;2.40;;;1.03;;
31182;SDS011;17813;0.000;0.000;2024-02-15T14:38:21;1.70;;;1.40;;
31182;SDS011;17813;0.000;0.000;2024-02-15T14:40:52;1.70;;;1.30;;
31182;SDS011;17813;0.000;0.000;2024-02-15T14:43:22;1.10;;;1.00;;
31182;SDS011;17813;0.000;0.000;2024-02-15T14:45:52;1.70;;;1.20;;
31182;SDS011;17813;0.000;0.000;2024-02-15T14:48:22;1.40;;;1.20;;
31182;SDS011;17813;0.000;0.000;2024-02-15T14:50:49;3.10;;;1.10;;
31182;SDS011;17813;0.000;0.000;2024-02-15T14:53:16;1.60;;;1.27;;
31182;SDS011;17813;0.000;0.000;2024-02-15T14:55:44;2.07;;;1.40;;
31182;SDS011;17813;0.000;0.000;2024-02-15T14:58:17;1.60;;;1.40;;
31182;SDS011;17813;0.000;0.000;2024-02-15T15:00:46;2.23;;;1.30;;
31182;SDS011;17813;0.000;0.000;2024-02-15T15:03:17;1.40;;;1.30;;
31182;SDS011;17813;0.000;0.000;2024-02-15T15:05:46;1.20;;;1.00;;
31182;SDS011;17813;0.000;0.000;2024-02-15T15:08:33;1.93;;;1.20;;
31182;SDS011;17813;0.000;0.000;2024-02-15T15:11:18;1.20;;;1.10;;
31182;SDS011;17813;0.000;0.000;2024-02-15T15:14:03;1.97;;;1.20;;
31182;SDS011;17813;0.000;0.000;2024-02-15T15:16:31;1.17;;;1.07;;
31182;SDS011;17813;0.000;0.000;2024-02-15T15:18:59;1.87;;;1.20;;
31182;SDS011;17813;0.000;0.000;2024-02-15T15:21:27;1.20;;;1.10;;
31182;SDS011;17813;0.000;0.000;2024-02-15T15:23:54;1.20;;;1.10;;
31182;SDS011;17813;0.000;0.000;2024-02-15T15:26:21;1.30;;;1.20;;
31182;SDS011;17813;0.000;0.000;2024-02-15T15:28:49;2.20;;;1.20;;
31182;SDS011;17813;0.000;0.000;2024-02-15T15:31:18;1.67;;;1.27;;
31182;SDS011;17813;0.000;0.000;2024-02-15T15:33:48;2.17;;;1.13;;
31182;SDS011;17813;0.000;0.000;2024-02-15T15:36:17;1.30;;;1.20;;
31182;SDS011;17813;0.000;0.000;2024-02-15T15:38:45;3.00;;;1.50;;
31182;SDS011;17813;0.000;0.000;2024-02-15T15:41:13;2.33;;;1.20;;
31182;SDS011;17813;0.000;0.000;2024-02-15T15:43:41;2.70;;;1.50;;
31182;SDS011;17813;0.000;0.000;2024-02-15T15:46:14;1.77;;;1.30;;